sensor_id;sensor_type;location;lat;lon;timestamp;temperature;humidity
45849;DHT22;31567;54.600;9.842;2022-12-07T00:00:07;4.70;99.90
45849;DHT22;31567;54.600;9.842;2022-12-07T00:03:49;4.60;99.90
45849;DHT22;31567;54.600;9.842;2022-12-07T00:07:28;4.50;99.90
45849;DHT22;31567;54.600;9.842;2022-12-07T00:11:14;4.50;99.90
45849;DHT22;31567;54.600;9.842;2022-12-07T00:14:53;4.50;99.90
45849;DHT22;31567;54.600;9.842;2022-12-07T00:18:33;4.50;99.90
45849;DHT22;31567;54.600;9.842;2022-12-07T00:22:12;4.50;99.90
45849;DHT22;31567;54.600;9.842;2022-12-07T00:25:52;4.40;99.90
45849;DHT22;31567;54.600;9.842;2022-12-07T00:29:32;4.40;99.90
45849;DHT22;31567;54.600;9.842;2022-12-07T00:33:11;4.40;99.90
45849;DHT22;31567;54.600;9.842;2022-12-07T00:36:51;4.30;99.90
45849;DHT22;31567;54.600;9.842;2022-12-07T00:40:30;4.40;99.90
45849;DHT22;31567;54.600;9.842;2022-12-07T00:44:10;4.40;99.90
45849;DHT22;31567;54.600;9.842;2022-12-07T00:47:50;4.40;99.90
45849;DHT22;31567;54.600;9.842;2022-12-07T00:51:29;4.40;99.90
45849;DHT22;31567;54.600;9.842;2022-12-07T00:55:09;4.30;99.90
45849;DHT22;31567;54.600;9.842;2022-12-07T00:58:56;4.30;99.90
45849;DHT22;31567;54.600;9.842;2022-12-07T01:02:36;4.30;99.90
45849;DHT22;31567;54.600;9.842;2022-12-07T01:06:17;4.30;99.90
45849;DHT22;31567;54.600;9.842;2022-12-07T01:09:57;4.30;99.90
45849;DHT22;31567;54.600;9.842;2022-12-07T01:13:37;4.20;99.90
45849;DHT22;31567;54.600;9.842;2022-12-07T01:17:16;4.20;99.90
45849;DHT22;31567;54.600;9.842;2022-12-07T01:21:03;4.10;99.90
45849;DHT22;31567;54.600;9.842;2022-12-07T01:24:43;4.00;99.90
45849;DHT22;31567;54.600;9.842;2022-12-07T01:28:23;3.90;99.90
45849;DHT22;31567;54.600;9.842;2022-12-07T01:32:03;3.70;99.90
45849;DHT22;31567;54.600;9.842;2022-12-07T01:35:43;3.60;99.90
45849;DHT22;31567;54.600;9.842;2022-12-07T01:39:22;3.50;99.90
45849;DHT22;31567;54.600;9.842;2022-12-07T01:43:02;3.50;99.90
45849;DHT22;31567;54.600;9.842;2022-12-07T01:50:28;3.40;99.90
45849;DHT22;31567;54.600;9.842;2022-12-07T01:54:11;3.30;99.90
45849;DHT22;31567;54.600;9.842;2022-12-07T01:57:53;3.30;99.90
45849;DHT22;31567;54.600;9.842;2022-12-07T02:01:33;3.10;99.90
45849;DHT22;31567;54.600;9.842;2022-12-07T02:05:13;3.10;99.90
45849;DHT22;31567;54.600;9.842;2022-12-07T02:08:53;3.20;99.90
45849;DHT22;31567;54.600;9.842;2022-12-07T02:12:33;3.20;99.90
45849;DHT22;31567;54.600;9.842;2022-12-07T02:16:33;3.20;99.90
45849;DHT22;31567;54.600;9.842;2022-12-07T02:20:28;3.20;99.90
45849;DHT22;31567;54.600;9.842;2022-12-07T02:36:25;3.20;99.90
45849;DHT22;31567;54.600;9.842;2022-12-07T02:40:16;3.30;99.90
45849;DHT22;31567;54.600;9.842;2022-12-07T02:44:03;3.40;99.90
45849;DHT22;31567;54.600;9.842;2022-12-07T02:47:48;3.40;99.90
45849;DHT22;31567;54.600;9.842;2022-12-07T02:51:32;3.30;99.90
45849;DHT22;31567;54.600;9.842;2022-12-07T02:55:15;3.30;99.90
45849;DHT22;31567;54.600;9.842;2022-12-07T03:03:05;3.20;99.90
45849;DHT22;31567;54.600;9.842;2022-12-07T03:06:56;3.10;99.90
45849;DHT22;31567;54.600;9.842;2022-12-07T03:11:05;3.10;99.90
45849;DHT22;31567;54.600;9.842;2022-12-07T03:15:05;3.00;99.90
45849;DHT22;31567;54.600;9.842;2022-12-07T03:18:55;3.00;99.90
45849;DHT22;31567;54.600;9.842;2022-12-07T03:22:37;3.10;99.90
45849;DHT22;31567;54.600;9.842;2022-12-07T03:26:19;3.00;99.90
45849;DHT22;31567;54.600;9.842;2022-12-07T03:30:06;3.00;99.90
45849;DHT22;31567;54.600;9.842;2022-12-07T03:33:59;3.10;99.90
45849;DHT22;31567;54.600;9.842;2022-12-07T03:41:50;3.20;99.90
45849;DHT22;31567;54.600;9.842;2022-12-07T03:45:44;3.20;99.90
45849;DHT22;31567;54.600;9.842;2022-12-07T03:49:53;3.20;99.90
45849;DHT22;31567;54.600;9.842;2022-12-07T03:53:42;3.10;99.90
45849;DHT22;31567;54.600;9.842;2022-12-07T03:57:24;3.10;99.90
45849;DHT22;31567;54.600;9.842;2022-12-07T04:01:04;3.10;99.90
45849;DHT22;31567;54.600;9.842;2022-12-07T04:04:43;2.90;99.90
45849;DHT22;31567;54.600;9.842;2022-12-07T04:08:23;2.90;99.90
45849;DHT22;31567;54.600;9.842;2022-12-07T04:12:03;2.80;99.90
45849;DHT22;31567;54.600;9.842;2022-12-07T04:15:43;2.70;99.90
45849;DHT22;31567;54.600;9.842;2022-12-07T04:19:30;2.70;99.90
45849;DHT22;31567;54.600;9.842;2022-12-07T04:23:10;2.70;99.90
45849;DHT22;31567;54.600;9.842;2022-12-07T04:26:50;2.70;99.90
45849;DHT22;31567;54.600;9.842;2022-12-07T04:30:29;2.60;99.90
45849;DHT22;31567;54.600;9.842;2022-12-07T04:34:10;2.60;99.90
45849;DHT22;31567;54.600;9.842;2022-12-07T04:37:49;2.50;99.90
45849;DHT22;31567;54.600;9.842;2022-12-07T04:41:29;2.60;99.90
45849;DHT22;31567;54.600;9.842;2022-12-07T04:45:09;2.60;99.90
45849;DHT22;31567;54.600;9.842;2022-12-07T04:48:49;2.60;99.90
45849;DHT22;31567;54.600;9.842;2022-12-07T04:52:28;2.60;99.90
45849;DHT22;31567;54.600;9.842;2022-12-07T04:56:08;2.70;99.90
45849;DHT22;31567;54.600;9.842;2022-12-07T04:59:47;2.70;99.90
45849;DHT22;31567;54.600;9.842;2022-12-07T05:03:27;2.70;99.90
45849;DHT22;31567;54.600;9.842;2022-12-07T05:07:06;2.70;99.90
45849;DHT22;31567;54.600;9.842;2022-12-07T05:10:48;2.60;99.90
45849;DHT22;31567;54.600;9.842;2022-12-07T05:14:28;2.70;99.90
45849;DHT22;31567;54.600;9.842;2022-12-07T05:18:07;2.60;99.90
45849;DHT22;31567;54.600;9.842;2022-12-07T05:21:48;2.60;99.90
45849;DHT22;31567;54.600;9.842;2022-12-07T05:25:28;2.60;99.90
45849;DHT22;31567;54.600;9.842;2022-12-07T05:29:07;2.60;99.90
45849;DHT22;31567;54.600;9.842;2022-12-07T05:32:47;2.50;99.90
45849;DHT22;31567;54.600;9.842;2022-12-07T05:36:26;2.50;99.90
45849;DHT22;31567;54.600;9.842;2022-12-07T05:40:09;2.50;99.90
45849;DHT22;31567;54.600;9.842;2022-12-07T05:43:48;2.50;99.90
45849;DHT22;31567;54.600;9.842;2022-12-07T05:47:28;2.50;99.90
45849;DHT22;31567;54.600;9.842;2022-12-07T05:51:07;2.50;99.90
45849;DHT22;31567;54.600;9.842;2022-12-07T05:54:47;2.50;99.90
45849;DHT22;31567;54.600;9.842;2022-12-07T05:58:27;2.50;99.90
45849;DHT22;31567;54.600;9.842;2022-12-07T06:02:25;2.50;99.90
45849;DHT22;31567;54.600;9.842;2022-12-07T06:06:04;2.60;99.90
45849;DHT22;31567;54.600;9.842;2022-12-07T06:09:44;2.60;99.90
45849;DHT22;31567;54.600;9.842;2022-12-07T06:13:24;2.50;99.90
45849;DHT22;31567;54.600;9.842;2022-12-07T06:17:04;2.50;99.90
45849;DHT22;31567;54.600;9.842;2022-12-07T06:20:43;2.50;99.90
45849;DHT22;31567;54.600;9.842;2022-12-07T06:24:23;2.50;99.90
45849;DHT22;31567;54.600;9.842;2022-12-07T06:28:03;2.50;99.90
45849;DHT22;31567;54.600;9.842;2022-12-07T06:31:43;2.60;99.90
45849;DHT22;31567;54.600;9.842;2022-12-07T06:35:22;2.60;99.90
45849;DHT22;31567;54.600;9.842;2022-12-07T06:39:03;2.60;99.90
45849;DHT22;31567;54.600;9.842;2022-12-07T06:42:43;2.70;99.90
45849;DHT22;31567;54.600;9.842;2022-12-07T06:46:23;2.70;99.90
45849;DHT22;31567;54.600;9.842;2022-12-07T06:50:03;2.70;99.90
45849;DHT22;31567;54.600;9.842;2022-12-07T06:53:43;2.60;99.90
45849;DHT22;31567;54.600;9.842;2022-12-07T06:57:22;2.60;99.90
45849;DHT22;31567;54.600;9.842;2022-12-07T07:01:02;2.60;99.90
45849;DHT22;31567;54.600;9.842;2022-12-07T07:04:42;2.60;99.90
45849;DHT22;31567;54.600;9.842;2022-12-07T07:08:22;2.60;99.90
45849;DHT22;31567;54.600;9.842;2022-12-07T07:12:01;2.60;99.90
45849;DHT22;31567;54.600;9.842;2022-12-07T07:15:41;2.60;99.90
45849;DHT22;31567;54.600;9.842;2022-12-07T07:19:20;2.60;99.90
45849;DHT22;31567;54.600;9.842;2022-12-07T07:23:00;2.70;99.90
45849;DHT22;31567;54.600;9.842;2022-12-07T07:26:40;2.70;99.90
45849;DHT22;31567;54.600;9.842;2022-12-07T07:30:19;2.70;99.90
45849;DHT22;31567;54.600;9.842;2022-12-07T07:33:59;2.70;99.90
45849;DHT22;31567;54.600;9.842;2022-12-07T07:37:38;2.60;99.90
45849;DHT22;31567;54.600;9.842;2022-12-07T07:41:18;2.60;99.90
45849;DHT22;31567;54.600;9.842;2022-12-07T07:44:57;2.70;99.90
45849;DHT22;31567;54.600;9.842;2022-12-07T07:48:37;2.70;99.90
45849;DHT22;31567;54.600;9.842;2022-12-07T07:52:17;2.60;99.90
45849;DHT22;31567;54.600;9.842;2022-12-07T07:55:56;2.70;99.90
45849;DHT22;31567;54.600;9.842;2022-12-07T07:59:36;2.70;99.90
45849;DHT22;31567;54.600;9.842;2022-12-07T08:03:16;2.70;99.90
45849;DHT22;31567;54.600;9.842;2022-12-07T08:06:56;2.70;99.90
45849;DHT22;31567;54.600;9.842;2022-12-07T08:10:36;2.70;99.90
45849;DHT22;31567;54.600;9.842;2022-12-07T08:14:16;2.70;99.90
45849;DHT22;31567;54.600;9.842;2022-12-07T08:17:56;2.70;99.90
45849;DHT22;31567;54.600;9.842;2022-12-07T08:21:35;2.70;99.90
45849;DHT22;31567;54.600;9.842;2022-12-07T08:25:16;2.80;99.90
45849;DHT22;31567;54.600;9.842;2022-12-07T08:28:56;2.80;99.90
45849;DHT22;31567;54.600;9.842;2022-12-07T08:32:35;2.80;99.80
45849;DHT22;31567;54.600;9.842;2022-12-07T08:36:16;2.90;99.80
45849;DHT22;31567;54.600;9.842;2022-12-07T08:39:55;2.90;99.70
45849;DHT22;31567;54.600;9.842;2022-12-07T08:43:35;2.90;99.70
45849;DHT22;31567;54.600;9.842;2022-12-07T08:47:15;3.00;99.60
45849;DHT22;31567;54.600;9.842;2022-12-07T08:50:55;2.90;99.40
45849;DHT22;31567;54.600;9.842;2022-12-07T08:54:37;3.00;99.40
45849;DHT22;31567;54.600;9.842;2022-12-07T08:58:18;3.00;99.30
45849;DHT22;31567;54.600;9.842;2022-12-07T09:01:57;3.00;99.30
45849;DHT22;31567;54.600;9.842;2022-12-07T09:05:37;3.00;99.20
45849;DHT22;31567;54.600;9.842;2022-12-07T09:09:16;3.00;99.20
45849;DHT22;31567;54.600;9.842;2022-12-07T09:12:56;3.00;99.00
45849;DHT22;31567;54.600;9.842;2022-12-07T09:16:39;3.00;99.00
45849;DHT22;31567;54.600;9.842;2022-12-07T09:20:19;3.00;99.10
45849;DHT22;31567;54.600;9.842;2022-12-07T09:23:59;3.00;98.90
45849;DHT22;31567;54.600;9.842;2022-12-07T09:27:39;3.00;98.90
45849;DHT22;31567;54.600;9.842;2022-12-07T09:31:18;3.10;98.90
45849;DHT22;31567;54.600;9.842;2022-12-07T09:34:58;3.10;98.60
45849;DHT22;31567;54.600;9.842;2022-12-07T09:38:37;3.00;98.50
45849;DHT22;31567;54.600;9.842;2022-12-07T09:42:34;3.10;98.60
45849;DHT22;31567;54.600;9.842;2022-12-07T09:46:16;3.10;98.50
45849;DHT22;31567;54.600;9.842;2022-12-07T09:50:05;3.10;98.20
45849;DHT22;31567;54.600;9.842;2022-12-07T09:53:45;3.10;98.20
45849;DHT22;31567;54.600;9.842;2022-12-07T09:57:31;3.10;97.90
45849;DHT22;31567;54.600;9.842;2022-12-07T10:01:17;3.20;97.90
45849;DHT22;31567;54.600;9.842;2022-12-07T10:04:58;3.20;97.90
45849;DHT22;31567;54.600;9.842;2022-12-07T10:08:38;3.20;97.80
45849;DHT22;31567;54.600;9.842;2022-12-07T10:12:17;3.20;97.70
45849;DHT22;31567;54.600;9.842;2022-12-07T10:15:57;3.20;97.70
45849;DHT22;31567;54.600;9.842;2022-12-07T10:19:37;3.30;97.70
45849;DHT22;31567;54.600;9.842;2022-12-07T10:23:17;3.20;97.70
45849;DHT22;31567;54.600;9.842;2022-12-07T10:26:57;3.30;97.60
45849;DHT22;31567;54.600;9.842;2022-12-07T10:30:56;3.30;97.60
45849;DHT22;31567;54.600;9.842;2022-12-07T10:34:38;3.40;97.60
45849;DHT22;31567;54.600;9.842;2022-12-07T10:38:17;3.40;97.50
45849;DHT22;31567;54.600;9.842;2022-12-07T10:42:02;3.30;97.30
45849;DHT22;31567;54.600;9.842;2022-12-07T10:46:01;3.30;97.20
45849;DHT22;31567;54.600;9.842;2022-12-07T10:53:39;3.30;97.30
45849;DHT22;31567;54.600;9.842;2022-12-07T11:01:22;3.40;97.10
45849;DHT22;31567;54.600;9.842;2022-12-07T11:09:10;3.40;96.60
45849;DHT22;31567;54.600;9.842;2022-12-07T11:16:57;3.50;96.70
45849;DHT22;31567;54.600;9.842;2022-12-07T11:36:38;3.60;95.90
45849;DHT22;31567;54.600;9.842;2022-12-07T11:40:30;3.60;96.00
45849;DHT22;31567;54.600;9.842;2022-12-07T11:48:24;3.50;96.20
45849;DHT22;31567;54.600;9.842;2022-12-07T11:52:16;3.70;96.30
45849;DHT22;31567;54.600;9.842;2022-12-07T11:56:08;3.60;96.00
45849;DHT22;31567;54.600;9.842;2022-12-07T12:00:02;3.60;96.20
45849;DHT22;31567;54.600;9.842;2022-12-07T12:03:53;3.70;96.30
45849;DHT22;31567;54.600;9.842;2022-12-07T12:07:36;3.70;96.30
45849;DHT22;31567;54.600;9.842;2022-12-07T12:11:39;3.70;96.30
45849;DHT22;31567;54.600;9.842;2022-12-07T12:23:50;3.70;96.50
45849;DHT22;31567;54.600;9.842;2022-12-07T12:27:36;3.70;96.50
45849;DHT22;31567;54.600;9.842;2022-12-07T12:31:32;3.60;96.40
45849;DHT22;31567;54.600;9.842;2022-12-07T12:35:20;3.50;96.30
45849;DHT22;31567;54.600;9.842;2022-12-07T12:42:52;3.50;96.50
45849;DHT22;31567;54.600;9.842;2022-12-07T12:50:17;3.60;96.60
45849;DHT22;31567;54.600;9.842;2022-12-07T12:54:04;3.60;96.60
45849;DHT22;31567;54.600;9.842;2022-12-07T12:57:44;3.60;96.60
45849;DHT22;31567;54.600;9.842;2022-12-07T13:01:38;3.60;96.50
45849;DHT22;31567;54.600;9.842;2022-12-07T13:05:21;3.60;96.50
45849;DHT22;31567;54.600;9.842;2022-12-07T13:09:01;3.60;96.50
45849;DHT22;31567;54.600;9.842;2022-12-07T13:12:41;3.60;96.40
45849;DHT22;31567;54.600;9.842;2022-12-07T13:20:05;3.70;96.20
45849;DHT22;31567;54.600;9.842;2022-12-07T13:27:30;3.80;96.30
45849;DHT22;31567;54.600;9.842;2022-12-07T13:35:32;3.70;96.40
45849;DHT22;31567;54.600;9.842;2022-12-07T13:39:19;3.70;96.20
45849;DHT22;31567;54.600;9.842;2022-12-07T13:43:02;3.70;96.20
45849;DHT22;31567;54.600;9.842;2022-12-07T13:46:57;3.70;96.20
45849;DHT22;31567;54.600;9.842;2022-12-07T13:50:37;3.70;96.10
45849;DHT22;31567;54.600;9.842;2022-12-07T13:54:17;3.60;96.10
45849;DHT22;31567;54.600;9.842;2022-12-07T13:57:57;3.60;96.20
45849;DHT22;31567;54.600;9.842;2022-12-07T14:01:36;3.60;96.20
45849;DHT22;31567;54.600;9.842;2022-12-07T14:05:25;3.60;96.30
45849;DHT22;31567;54.600;9.842;2022-12-07T14:09:22;3.70;96.30
45849;DHT22;31567;54.600;9.842;2022-12-07T14:13:28;3.70;96.30
45849;DHT22;31567;54.600;9.842;2022-12-07T14:17:20;3.80;96.20
45849;DHT22;31567;54.600;9.842;2022-12-07T14:24:50;3.80;96.20
45849;DHT22;31567;54.600;9.842;2022-12-07T14:28:33;3.80;96.20
45849;DHT22;31567;54.600;9.842;2022-12-07T14:36:03;3.70;96.10
45849;DHT22;31567;54.600;9.842;2022-12-07T14:39:42;3.80;96.20
45849;DHT22;31567;54.600;9.842;2022-12-07T14:43:22;3.80;96.20
45849;DHT22;31567;54.600;9.842;2022-12-07T14:47:01;3.80;96.10
45849;DHT22;31567;54.600;9.842;2022-12-07T14:50:45;3.80;96.10
45849;DHT22;31567;54.600;9.842;2022-12-07T14:54:26;3.80;96.10
45849;DHT22;31567;54.600;9.842;2022-12-07T14:58:16;3.80;96.00
45849;DHT22;31567;54.600;9.842;2022-12-07T15:01:56;3.80;96.30
45849;DHT22;31567;54.600;9.842;2022-12-07T15:05:36;3.80;96.00
45849;DHT22;31567;54.600;9.842;2022-12-07T15:09:16;3.80;96.00
45849;DHT22;31567;54.600;9.842;2022-12-07T15:12:57;3.80;96.00
45849;DHT22;31567;54.600;9.842;2022-12-07T15:16:56;3.80;96.00
45849;DHT22;31567;54.600;9.842;2022-12-07T15:20:35;3.70;96.00
45849;DHT22;31567;54.600;9.842;2022-12-07T15:24:15;3.80;96.00
45849;DHT22;31567;54.600;9.842;2022-12-07T15:27:55;3.70;95.90
45849;DHT22;31567;54.600;9.842;2022-12-07T15:31:35;3.70;96.00
45849;DHT22;31567;54.600;9.842;2022-12-07T15:35:14;3.70;96.00
45849;DHT22;31567;54.600;9.842;2022-12-07T15:38:55;3.60;95.90
45849;DHT22;31567;54.600;9.842;2022-12-07T15:42:36;3.60;95.90
45849;DHT22;31567;54.600;9.842;2022-12-07T15:46:15;3.60;96.30
45849;DHT22;31567;54.600;9.842;2022-12-07T15:49:55;3.60;96.00
45849;DHT22;31567;54.600;9.842;2022-12-07T15:53:35;3.50;96.00
45849;DHT22;31567;54.600;9.842;2022-12-07T15:57:14;3.50;96.00
45849;DHT22;31567;54.600;9.842;2022-12-07T16:00:54;3.40;96.00
45849;DHT22;31567;54.600;9.842;2022-12-07T16:04:33;3.30;96.00
45849;DHT22;31567;54.600;9.842;2022-12-07T16:08:13;3.30;96.00
45849;DHT22;31567;54.600;9.842;2022-12-07T16:11:53;3.20;96.00
45849;DHT22;31567;54.600;9.842;2022-12-07T16:15:38;3.20;96.00
45849;DHT22;31567;54.600;9.842;2022-12-07T16:19:17;3.20;96.10
45849;DHT22;31567;54.600;9.842;2022-12-07T16:22:57;3.10;96.10
45849;DHT22;31567;54.600;9.842;2022-12-07T16:26:37;3.00;96.10
45849;DHT22;31567;54.600;9.842;2022-12-07T16:30:16;3.00;96.20
45849;DHT22;31567;54.600;9.842;2022-12-07T16:33:57;3.00;96.20
45849;DHT22;31567;54.600;9.842;2022-12-07T16:37:37;3.00;96.20
45849;DHT22;31567;54.600;9.842;2022-12-07T16:41:17;2.90;96.20
45849;DHT22;31567;54.600;9.842;2022-12-07T16:44:57;2.80;96.00
45849;DHT22;31567;54.600;9.842;2022-12-07T16:48:37;2.80;96.20
45849;DHT22;31567;54.600;9.842;2022-12-07T16:52:19;2.80;96.30
45849;DHT22;31567;54.600;9.842;2022-12-07T16:55:58;2.80;96.30
45849;DHT22;31567;54.600;9.842;2022-12-07T16:59:38;2.80;96.30
45849;DHT22;31567;54.600;9.842;2022-12-07T17:03:17;2.80;96.20
45849;DHT22;31567;54.600;9.842;2022-12-07T17:06:57;2.80;96.20
45849;DHT22;31567;54.600;9.842;2022-12-07T17:10:40;2.80;96.40
45849;DHT22;31567;54.600;9.842;2022-12-07T17:14:20;2.80;96.40
45849;DHT22;31567;54.600;9.842;2022-12-07T17:18:18;2.80;96.40
45849;DHT22;31567;54.600;9.842;2022-12-07T17:21:58;2.80;96.40
45849;DHT22;31567;54.600;9.842;2022-12-07T17:25:37;2.80;96.40
45849;DHT22;31567;54.600;9.842;2022-12-07T17:29:18;2.80;96.40
45849;DHT22;31567;54.600;9.842;2022-12-07T17:32:57;2.80;96.40
45849;DHT22;31567;54.600;9.842;2022-12-07T17:36:37;2.70;96.40
45849;DHT22;31567;54.600;9.842;2022-12-07T17:40:17;2.70;96.40
45849;DHT22;31567;54.600;9.842;2022-12-07T17:43:56;2.70;96.40
45849;DHT22;31567;54.600;9.842;2022-12-07T17:47:36;2.70;96.40
45849;DHT22;31567;54.600;9.842;2022-12-07T17:51:16;2.70;96.40
45849;DHT22;31567;54.600;9.842;2022-12-07T17:55:14;2.70;96.50
45849;DHT22;31567;54.600;9.842;2022-12-07T17:58:54;2.70;96.50
45849;DHT22;31567;54.600;9.842;2022-12-07T18:02:34;2.70;96.50
45849;DHT22;31567;54.600;9.842;2022-12-07T18:06:13;2.70;96.40
45849;DHT22;31567;54.600;9.842;2022-12-07T18:09:53;2.70;96.70
45849;DHT22;31567;54.600;9.842;2022-12-07T18:13:33;2.60;96.40
45849;DHT22;31567;54.600;9.842;2022-12-07T18:17:17;2.60;96.40
45849;DHT22;31567;54.600;9.842;2022-12-07T18:20:56;2.60;96.50
45849;DHT22;31567;54.600;9.842;2022-12-07T18:24:36;2.60;96.40
45849;DHT22;31567;54.600;9.842;2022-12-07T18:28:17;2.60;96.40
45849;DHT22;31567;54.600;9.842;2022-12-07T18:31:56;2.60;96.50
45849;DHT22;31567;54.600;9.842;2022-12-07T18:35:36;2.60;96.50
45849;DHT22;31567;54.600;9.842;2022-12-07T18:39:17;2.60;96.60
45849;DHT22;31567;54.600;9.842;2022-12-07T18:42:56;2.70;96.70
45849;DHT22;31567;54.600;9.842;2022-12-07T18:46:36;2.70;96.70
45849;DHT22;31567;54.600;9.842;2022-12-07T18:50:16;2.70;96.70
45849;DHT22;31567;54.600;9.842;2022-12-07T18:53:56;2.70;96.60
45849;DHT22;31567;54.600;9.842;2022-12-07T18:57:36;2.80;96.70
45849;DHT22;31567;54.600;9.842;2022-12-07T19:01:15;2.80;96.70
45849;DHT22;31567;54.600;9.842;2022-12-07T19:04:55;2.80;96.50
45849;DHT22;31567;54.600;9.842;2022-12-07T19:08:35;2.80;96.60
45849;DHT22;31567;54.600;9.842;2022-12-07T19:12:15;2.70;96.70
45849;DHT22;31567;54.600;9.842;2022-12-07T19:15:55;2.70;96.80
45849;DHT22;31567;54.600;9.842;2022-12-07T19:19:35;2.70;96.90
45849;DHT22;31567;54.600;9.842;2022-12-07T19:23:15;2.70;96.90
45849;DHT22;31567;54.600;9.842;2022-12-07T19:26:55;2.70;97.00
45849;DHT22;31567;54.600;9.842;2022-12-07T19:30:36;2.60;97.00
45849;DHT22;31567;54.600;9.842;2022-12-07T19:34:16;2.70;97.20
45849;DHT22;31567;54.600;9.842;2022-12-07T19:37:56;2.70;97.30
45849;DHT22;31567;54.600;9.842;2022-12-07T19:41:35;2.80;97.30
45849;DHT22;31567;54.600;9.842;2022-12-07T19:45:17;2.80;97.10
45849;DHT22;31567;54.600;9.842;2022-12-07T19:48:57;2.80;97.10
45849;DHT22;31567;54.600;9.842;2022-12-07T19:52:38;2.80;97.20
45849;DHT22;31567;54.600;9.842;2022-12-07T19:56:19;2.90;97.30
45849;DHT22;31567;54.600;9.842;2022-12-07T20:00:00;2.90;97.20
45849;DHT22;31567;54.600;9.842;2022-12-07T20:03:39;2.90;97.30
45849;DHT22;31567;54.600;9.842;2022-12-07T20:07:19;3.00;97.30
45849;DHT22;31567;54.600;9.842;2022-12-07T20:10:59;3.00;97.20
45849;DHT22;31567;54.600;9.842;2022-12-07T20:14:38;3.00;97.30
45849;DHT22;31567;54.600;9.842;2022-12-07T20:18:18;3.10;97.30
45849;DHT22;31567;54.600;9.842;2022-12-07T20:21:57;3.10;97.30
45849;DHT22;31567;54.600;9.842;2022-12-07T20:25:37;3.10;97.30
45849;DHT22;31567;54.600;9.842;2022-12-07T20:29:19;3.10;97.20
45849;DHT22;31567;54.600;9.842;2022-12-07T20:32:59;3.10;97.20
45849;DHT22;31567;54.600;9.842;2022-12-07T20:36:39;3.20;97.20
45849;DHT22;31567;54.600;9.842;2022-12-07T20:40:18;3.10;97.20
45849;DHT22;31567;54.600;9.842;2022-12-07T20:43:58;3.20;97.20
45849;DHT22;31567;54.600;9.842;2022-12-07T20:47:38;3.20;97.10
45849;DHT22;31567;54.600;9.842;2022-12-07T20:51:18;3.20;97.10
45849;DHT22;31567;54.600;9.842;2022-12-07T20:54:58;3.20;97.10
45849;DHT22;31567;54.600;9.842;2022-12-07T20:58:37;3.20;97.10
45849;DHT22;31567;54.600;9.842;2022-12-07T21:02:17;3.30;97.10
45849;DHT22;31567;54.600;9.842;2022-12-07T21:06:00;3.30;97.00
45849;DHT22;31567;54.600;9.842;2022-12-07T21:09:40;3.30;97.20
45849;DHT22;31567;54.600;9.842;2022-12-07T21:13:19;3.20;96.90
45849;DHT22;31567;54.600;9.842;2022-12-07T21:16:59;3.20;97.00
45849;DHT22;31567;54.600;9.842;2022-12-07T21:20:39;3.20;97.00
45849;DHT22;31567;54.600;9.842;2022-12-07T21:24:18;3.20;96.90
45849;DHT22;31567;54.600;9.842;2022-12-07T21:27:58;3.10;96.80
45849;DHT22;31567;54.600;9.842;2022-12-07T21:31:37;3.00;96.90
45849;DHT22;31567;54.600;9.842;2022-12-07T21:35:17;3.10;97.00
45849;DHT22;31567;54.600;9.842;2022-12-07T21:38:57;3.10;97.00
45849;DHT22;31567;54.600;9.842;2022-12-07T21:42:36;3.00;96.90
45849;DHT22;31567;54.600;9.842;2022-12-07T21:46:17;3.00;97.00
45849;DHT22;31567;54.600;9.842;2022-12-07T21:49:57;3.00;97.10
45849;DHT22;31567;54.600;9.842;2022-12-07T21:53:38;3.00;97.20
45849;DHT22;31567;54.600;9.842;2022-12-07T21:57:18;3.10;97.30
45849;DHT22;31567;54.600;9.842;2022-12-07T22:00:58;3.10;97.30
45849;DHT22;31567;54.600;9.842;2022-12-07T22:04:38;3.20;97.40
45849;DHT22;31567;54.600;9.842;2022-12-07T22:08:17;3.30;97.40
45849;DHT22;31567;54.600;9.842;2022-12-07T22:11:57;3.30;97.30
45849;DHT22;31567;54.600;9.842;2022-12-07T22:15:39;3.40;97.20
45849;DHT22;31567;54.600;9.842;2022-12-07T22:19:19;3.40;97.10
45849;DHT22;31567;54.600;9.842;2022-12-07T22:22:58;3.30;97.10
45849;DHT22;31567;54.600;9.842;2022-12-07T22:26:39;3.20;97.20
45849;DHT22;31567;54.600;9.842;2022-12-07T22:30:19;3.20;97.30
45849;DHT22;31567;54.600;9.842;2022-12-07T22:33:58;3.30;97.30
45849;DHT22;31567;54.600;9.842;2022-12-07T22:37:38;3.30;97.30
45849;DHT22;31567;54.600;9.842;2022-12-07T22:45:03;3.40;97.20
45849;DHT22;31567;54.600;9.842;2022-12-07T22:48:43;3.40;97.20
45849;DHT22;31567;54.600;9.842;2022-12-07T22:52:22;3.40;97.20
45849;DHT22;31567;54.600;9.842;2022-12-07T22:56:02;3.50;97.10
45849;DHT22;31567;54.600;9.842;2022-12-07T22:59:41;3.50;96.90
45849;DHT22;31567;54.600;9.842;2022-12-07T23:03:21;3.50;96.80
45849;DHT22;31567;54.600;9.842;2022-12-07T23:07:01;3.40;96.70
45849;DHT22;31567;54.600;9.842;2022-12-07T23:10:45;3.30;96.80
45849;DHT22;31567;54.600;9.842;2022-12-07T23:14:30;3.20;97.00
45849;DHT22;31567;54.600;9.842;2022-12-07T23:18:10;3.20;97.30
45849;DHT22;31567;54.600;9.842;2022-12-07T23:21:49;3.30;97.40
45849;DHT22;31567;54.600;9.842;2022-12-07T23:25:29;3.30;97.40
45849;DHT22;31567;54.600;9.842;2022-12-07T23:29:09;3.30;97.50
45849;DHT22;31567;54.600;9.842;2022-12-07T23:32:49;3.20;97.30
45849;DHT22;31567;54.600;9.842;2022-12-07T23:36:28;3.20;97.30
45849;DHT22;31567;54.600;9.842;2022-12-07T23:40:08;3.20;97.90
45849;DHT22;31567;54.600;9.842;2022-12-07T23:43:48;3.30;97.80
45849;DHT22;31567;54.600;9.842;2022-12-07T23:47:28;3.30;97.70
45849;DHT22;31567;54.600;9.842;2022-12-07T23:51:08;3.40;97.80
45849;DHT22;31567;54.600;9.842;2022-12-07T23:54:48;3.40;97.90
45849;DHT22;31567;54.600;9.842;2022-12-07T23:58:28;3.40;97.90
